createdAt,value
2022-08-05T00:00:18.576Z,19.90
2022-08-05T00:02:50.458Z,19.90
2022-08-05T00:05:27.145Z,19.90
2022-08-05T00:08:34.210Z,19.90
2022-08-05T00:11:00.512Z,19.80
2022-08-05T00:13:38.864Z,19.80
2022-08-05T00:16:12.613Z,19.80
2022-08-05T00:18:42.551Z,19.80
2022-08-05T00:21:14.307Z,19.80
2022-08-05T00:23:46.807Z,19.70
2022-08-05T00:26:22.573Z,19.70
2022-08-05T00:28:51.655Z,19.70
2022-08-05T00:31:41.321Z,19.70
2022-08-05T00:34:54.358Z,19.70
2022-08-05T00:37:20.097Z,19.70
2022-08-05T00:39:58.625Z,19.70
2022-08-05T00:42:34.771Z,19.70
2022-08-05T00:45:02.929Z,19.70
2022-08-05T00:47:56.985Z,19.70
2022-08-05T00:50:21.757Z,19.60
2022-08-05T00:52:55.252Z,19.60
2022-08-05T00:55:34.229Z,19.60
2022-08-05T00:58:11.705Z,19.50
2022-08-05T01:00:42.191Z,19.60
2022-08-05T01:03:12.611Z,19.50
2022-08-05T01:05:51.558Z,19.50
2022-08-05T01:08:42.202Z,19.50
2022-08-05T01:11:14.425Z,19.50
2022-08-05T01:14:04.028Z,19.40
2022-08-05T01:16:44.465Z,19.40
2022-08-05T01:19:56.288Z,19.40
2022-08-05T01:22:37.292Z,19.40
2022-08-05T01:25:40.028Z,19.40
2022-08-05T01:28:18.346Z,19.40
2022-08-05T01:30:55.458Z,19.50
2022-08-05T01:33:29.534Z,19.50
2022-08-05T01:36:13.022Z,19.50
2022-08-05T01:38:48.604Z,19.40
2022-08-05T01:41:22.496Z,19.40
2022-08-05T01:43:55.777Z,19.40
2022-08-05T01:46:43.012Z,19.30
2022-08-05T01:49:24.324Z,19.30
2022-08-05T01:51:58.309Z,19.20
2022-08-05T01:54:31.113Z,19.20
2022-08-05T01:58:09.562Z,19.20
2022-08-05T01:59:52.586Z,19.10
2022-08-05T02:02:28.465Z,19.00
2022-08-05T02:05:00.941Z,19.00
2022-08-05T02:07:33.755Z,19.00
2022-08-05T02:10:03.392Z,18.90
2022-08-05T02:12:44.102Z,18.90
2022-08-05T02:15:25.290Z,18.80
2022-08-05T02:18:32.645Z,18.70
2022-08-05T02:20:58.684Z,18.60
2022-08-05T02:23:33.928Z,18.60
2022-08-05T02:26:07.590Z,18.50
2022-08-05T02:28:45.710Z,18.50
2022-08-05T02:31:20.964Z,18.60
2022-08-05T02:33:57.833Z,18.60
2022-08-05T02:36:31.110Z,18.60
2022-08-05T02:39:01.440Z,18.50
2022-08-05T02:41:43.019Z,18.50
2022-08-05T02:44:20.769Z,18.40
2022-08-05T02:46:58.934Z,18.40
2022-08-05T02:49:36.059Z,18.50
2022-08-05T02:52:09.109Z,18.40
2022-08-05T02:54:42.204Z,18.40
2022-08-05T02:58:10.937Z,18.40
2022-08-05T03:00:03.355Z,18.30
2022-08-05T03:02:37.988Z,18.20
2022-08-05T03:05:09.389Z,18.20
2022-08-05T03:08:00.272Z,18.20
2022-08-05T03:10:28.899Z,18.20
2022-08-05T03:15:24.579Z,18.20
2022-08-05T03:17:57.916Z,18.10
2022-08-05T03:20:27.702Z,18.10
2022-08-05T03:22:57.590Z,18.20
2022-08-05T03:25:32.442Z,18.10
2022-08-05T03:28:03.730Z,18.10
2022-08-05T03:30:33.826Z,18.00
2022-08-05T03:33:06.327Z,18.00
2022-08-05T03:35:40.723Z,18.00
2022-08-05T03:38:12.526Z,17.90
2022-08-05T03:40:45.114Z,17.80
2022-08-05T03:44:09.979Z,17.80
2022-08-05T03:46:05.261Z,17.80
2022-08-05T03:48:37.830Z,17.70
2022-08-05T03:52:35.041Z,17.70
2022-08-05T03:55:53.093Z,17.70
2022-08-05T03:57:00.074Z,17.60
2022-08-05T03:59:47.286Z,17.60
2022-08-05T04:02:38.711Z,17.60
2022-08-05T04:05:10.345Z,17.60
2022-08-05T04:07:58.343Z,17.60
2022-08-05T04:10:32.048Z,17.60
2022-08-05T04:13:03.445Z,17.60
2022-08-05T04:15:32.901Z,17.60
2022-08-05T04:18:06.669Z,17.70
2022-08-05T04:20:36.997Z,17.70
2022-08-05T04:23:05.563Z,17.70
2022-08-05T04:25:49.425Z,17.70
2022-08-05T04:28:28.563Z,17.70
2022-08-05T04:31:00.957Z,17.70
2022-08-05T04:34:17.954Z,17.80
2022-08-05T04:36:44.940Z,17.80
2022-08-05T04:39:07.885Z,17.80
2022-08-05T04:41:36.694Z,17.80
2022-08-05T04:44:09.415Z,17.80
2022-08-05T04:46:38.666Z,17.90
2022-08-05T04:49:12.230Z,17.90
2022-08-05T04:51:44.959Z,17.90
2022-08-05T04:54:14.628Z,18.00
2022-08-05T04:56:43.509Z,18.00
2022-08-05T04:59:23.963Z,18.10
2022-08-05T05:02:35.473Z,18.10
2022-08-05T05:04:47.661Z,18.10
2022-08-05T05:07:29.293Z,18.00
2022-08-05T05:09:57.866Z,18.00
2022-08-05T05:12:27.319Z,18.00
2022-08-05T05:14:55.943Z,18.10
2022-08-05T05:17:55.738Z,18.00
2022-08-05T05:20:13.830Z,18.10
2022-08-05T05:22:44.151Z,18.10
2022-08-05T05:25:16.494Z,18.20
2022-08-05T05:27:48.606Z,18.20
2022-08-05T05:30:29.565Z,18.20
2022-08-05T05:33:03.872Z,18.20
2022-08-05T05:35:45.101Z,18.20
2022-08-05T05:38:14.973Z,18.10
2022-08-05T05:40:51.945Z,18.20
2022-08-05T05:43:27.614Z,18.10
2022-08-05T05:46:15.706Z,18.10
2022-08-05T05:48:44.831Z,18.10
2022-08-05T05:51:22.386Z,18.20
2022-08-05T05:53:57.902Z,18.40
2022-08-05T05:56:32.240Z,18.50
2022-08-05T05:59:05.629Z,18.70
2022-08-05T06:01:37.011Z,18.70
2022-08-05T06:04:07.553Z,18.70
2022-08-05T06:06:36.359Z,18.70
2022-08-05T06:09:07.567Z,18.70
2022-08-05T06:11:39.266Z,18.70
2022-08-05T06:14:07.757Z,18.80
2022-08-05T06:16:37.125Z,18.80
2022-08-05T06:19:07.369Z,19.00
2022-08-05T06:21:38.735Z,19.30
2022-08-05T06:24:12.693Z,19.60
2022-08-05T06:26:51.100Z,19.80
2022-08-05T06:29:42.838Z,19.80
2022-08-05T06:32:20.912Z,19.70
2022-08-05T06:34:56.826Z,19.50
2022-08-05T06:37:56.082Z,19.60
2022-08-05T06:40:20.554Z,19.50
2022-08-05T06:42:52.320Z,19.40
2022-08-05T06:45:44.580Z,19.40
2022-08-05T06:48:44.120Z,19.40
2022-08-05T06:51:00.056Z,19.30
2022-08-05T06:53:29.328Z,19.20
2022-08-05T06:56:00.301Z,19.10
2022-08-05T06:58:36.535Z,19.10
2022-08-05T07:01:07.044Z,19.20
2022-08-05T07:03:36.334Z,19.10
2022-08-05T07:06:05.894Z,19.10
2022-08-05T07:08:47.783Z,19.10
2022-08-05T07:11:22.293Z,19.00
2022-08-05T07:14:20.055Z,18.90
2022-08-05T07:18:00.755Z,18.90
2022-08-05T07:20:34.040Z,18.90
2022-08-05T07:22:38.587Z,18.80
2022-08-05T07:25:22.182Z,18.70
2022-08-05T07:27:57.687Z,18.70
2022-08-05T07:30:33.434Z,18.60
2022-08-05T07:33:05.062Z,18.60
2022-08-05T07:36:01.558Z,18.70
2022-08-05T07:38:32.993Z,18.60
2022-08-05T07:41:34.958Z,18.60
2022-08-05T07:43:56.288Z,18.60
2022-08-05T07:46:26.359Z,18.70
2022-08-05T07:49:02.943Z,18.60
2022-08-05T07:51:40.778Z,18.70
2022-08-05T07:54:18.705Z,18.70
2022-08-05T07:57:13.594Z,18.80
2022-08-05T07:59:39.983Z,18.80
2022-08-05T08:02:16.104Z,18.90
2022-08-05T08:04:48.287Z,18.80
2022-08-05T08:07:22.190Z,18.80
2022-08-05T08:09:52.490Z,18.80
2022-08-05T08:12:37.490Z,18.80
2022-08-05T08:15:15.115Z,18.80
2022-08-05T08:17:50.660Z,18.80
2022-08-05T08:20:59.833Z,18.80
2022-08-05T08:23:59.839Z,18.80
2022-08-05T08:26:02.823Z,18.70
2022-08-05T08:28:36.468Z,18.80
2022-08-05T08:31:16.412Z,18.80
2022-08-05T08:33:46.068Z,18.70
2022-08-05T08:36:38.990Z,18.80
2022-08-05T08:39:15.397Z,18.80
2022-08-05T08:41:51.011Z,18.90
2022-08-05T08:45:25.060Z,19.00
2022-08-05T08:48:05.974Z,19.10
2022-08-05T08:50:31.981Z,19.20
2022-08-05T08:53:08.092Z,19.20
2022-08-05T08:56:02.849Z,19.20
2022-08-05T08:58:36.940Z,19.20
2022-08-05T09:01:16.345Z,19.30
2022-08-05T09:03:47.807Z,19.30
2022-08-05T09:06:21.121Z,19.30
2022-08-05T09:08:52.322Z,19.30
2022-08-05T09:11:52.076Z,19.30
2022-08-05T09:14:54.080Z,19.20
2022-08-05T09:16:57.803Z,19.20
2022-08-05T09:19:36.430Z,19.20
2022-08-05T09:22:31.240Z,19.20
2022-08-05T09:25:01.266Z,19.20
2022-08-05T09:28:04.600Z,19.30
2022-08-05T09:30:23.835Z,19.30
2022-08-05T09:32:53.472Z,19.50
2022-08-05T09:35:27.320Z,19.50
2022-08-05T09:38:16.366Z,19.50
2022-08-05T09:40:52.345Z,19.40
2022-08-05T09:43:41.633Z,19.30
2022-08-05T09:46:27.873Z,19.30
2022-08-05T09:49:08.283Z,19.20
2022-08-05T09:51:48.819Z,19.10
2022-08-05T09:54:21.442Z,19.10
2022-08-05T09:57:01.463Z,19.10
2022-08-05T09:59:36.924Z,19.00
2022-08-05T10:02:06.315Z,19.00
2022-08-05T10:04:40.993Z,19.00
2022-08-05T10:07:20.082Z,19.00
2022-08-05T10:10:04.192Z,19.00
2022-08-05T10:12:49.255Z,18.90
2022-08-05T10:15:26.603Z,18.90
2022-08-05T10:18:12.901Z,18.90
2022-08-05T10:20:47.922Z,18.90
2022-08-05T10:23:34.495Z,18.80
2022-08-05T10:26:13.834Z,18.80
2022-08-05T10:28:43.544Z,18.80
2022-08-05T10:32:53.917Z,18.70
2022-08-05T10:34:03.350Z,18.70
2022-08-05T10:36:32.172Z,18.60
2022-08-05T10:39:11.580Z,18.70
2022-08-05T10:41:51.780Z,18.70
2022-08-05T10:44:23.274Z,18.80
2022-08-05T10:46:54.201Z,18.90
2022-08-05T10:49:27.018Z,18.90
2022-08-05T10:52:04.999Z,18.80
2022-08-05T10:55:04.475Z,18.80
2022-08-05T10:57:34.202Z,18.80
2022-08-05T11:00:19.780Z,18.80
2022-08-05T11:03:24.341Z,18.80
2022-08-05T11:06:06.328Z,18.80
2022-08-05T11:08:39.379Z,18.80
2022-08-05T11:11:44.533Z,18.90
2022-08-05T11:14:57.660Z,18.90
2022-08-05T11:17:58.122Z,18.80
2022-08-05T11:20:39.116Z,18.80
2022-08-05T11:24:05.500Z,18.80
2022-08-05T11:26:28.626Z,18.80
2022-08-05T11:29:11.552Z,18.90
2022-08-05T11:31:57.072Z,18.90
2022-08-05T11:34:39.978Z,19.00
2022-08-05T11:38:30.567Z,19.00
2022-08-05T11:41:01.374Z,19.10
2022-08-05T11:44:06.693Z,19.10
2022-08-05T11:46:37.718Z,19.10
2022-08-05T11:49:10.035Z,19.10
2022-08-05T11:51:44.207Z,19.10
2022-08-05T11:54:34.020Z,19.20
2022-08-05T11:57:08.047Z,19.30
2022-08-05T11:59:50.319Z,19.30
2022-08-05T12:02:30.235Z,19.40
2022-08-05T12:05:00.892Z,19.50
2022-08-05T12:08:03.249Z,19.70
2022-08-05T12:10:38.611Z,19.70
2022-08-05T12:13:16.389Z,19.80
2022-08-05T12:15:49.744Z,20.00
2022-08-05T12:18:33.069Z,20.30
2022-08-05T12:21:11.502Z,20.50
2022-08-05T12:23:42.876Z,20.90
2022-08-05T12:26:11.627Z,21.40
2022-08-05T12:28:40.158Z,21.70
2022-08-05T12:31:10.504Z,21.90
2022-08-05T12:33:53.104Z,22.00
2022-08-05T12:36:21.564Z,22.20
2022-08-05T12:38:54.071Z,22.40
2022-08-05T12:41:22.209Z,22.50
2022-08-05T12:44:04.064Z,22.60
2022-08-05T12:46:33.741Z,22.60
2022-08-05T12:49:13.781Z,22.70
2022-08-05T12:52:14.112Z,22.80
2022-08-05T12:54:36.701Z,22.70
2022-08-05T12:57:09.426Z,22.60
2022-08-05T12:59:46.714Z,22.60
2022-08-05T13:02:40.223Z,22.40
2022-08-05T13:05:12.547Z,22.20
2022-08-05T13:07:59.958Z,21.90
2022-08-05T13:10:32.290Z,21.80
2022-08-05T13:13:00.567Z,21.70
2022-08-05T13:15:36.128Z,21.60
2022-08-05T13:18:19.818Z,21.60
2022-08-05T13:20:50.499Z,21.60
2022-08-05T13:23:22.071Z,21.60
2022-08-05T13:25:59.616Z,21.50
2022-08-05T13:28:32.397Z,21.50
2022-08-05T13:31:11.191Z,21.50
2022-08-05T13:34:22.108Z,21.50
2022-08-05T13:36:33.401Z,21.50
2022-08-05T13:39:01.853Z,21.50
2022-08-05T13:41:37.727Z,21.60
2022-08-05T13:44:06.525Z,21.80
2022-08-05T13:47:01.658Z,21.90
2022-08-05T13:49:26.262Z,21.90
2022-08-05T13:51:57.328Z,21.90
2022-08-05T13:54:26.396Z,21.90
2022-08-05T13:56:54.942Z,22.10
2022-08-05T13:59:27.514Z,22.10
2022-08-05T14:02:00.797Z,22.20
2022-08-05T14:04:49.510Z,22.20
2022-08-05T14:07:56.453Z,22.30
2022-08-05T14:10:12.383Z,22.30
2022-08-05T14:12:42.813Z,22.20
2022-08-05T14:16:08.685Z,22.20
2022-08-05T14:18:00.966Z,22.20
2022-08-05T14:20:30.709Z,22.10
2022-08-05T14:23:00.603Z,22.00
2022-08-05T14:25:30.694Z,22.00
2022-08-05T14:27:58.913Z,22.00
2022-08-05T14:30:28.277Z,22.00
2022-08-05T14:32:58.711Z,22.00
2022-08-05T14:35:36.320Z,22.00
2022-08-05T14:38:32.216Z,22.10
2022-08-05T14:41:01.499Z,22.10
2022-08-05T14:43:57.779Z,22.00
2022-08-05T14:46:22.225Z,21.90
2022-08-05T14:48:52.448Z,21.80
2022-08-05T14:51:21.275Z,21.60
2022-08-05T14:54:26.637Z,21.40
2022-08-05T14:56:44.221Z,20.60
2022-08-05T14:59:15.191Z,20.30
2022-08-05T15:01:48.969Z,20.20
2022-08-05T15:04:20.730Z,20.40
2022-08-05T15:06:50.539Z,20.50
2022-08-05T15:09:51.998Z,20.60
2022-08-05T15:12:11.829Z,20.60
2022-08-05T15:14:49.976Z,20.50
2022-08-05T15:17:46.814Z,20.40
2022-08-05T15:20:19.071Z,20.30
2022-08-05T15:22:54.222Z,20.30
2022-08-05T15:25:51.236Z,20.20
2022-08-05T15:28:16.144Z,20.10
2022-08-05T15:30:45.863Z,20.20
2022-08-05T15:34:05.941Z,20.30
2022-08-05T15:36:04.554Z,20.40
2022-08-05T15:38:41.049Z,20.50
2022-08-05T15:41:22.192Z,20.40
2022-08-05T15:43:54.659Z,20.30
2022-08-05T15:46:24.459Z,20.10
2022-08-05T15:48:58.750Z,20.10
2022-08-05T15:52:03.838Z,20.10
2022-08-05T15:54:19.021Z,20.10
2022-08-05T15:56:48.704Z,20.00
2022-08-05T15:59:21.897Z,20.00
2022-08-05T16:01:52.392Z,19.80
2022-08-05T16:04:25.543Z,19.60
2022-08-05T16:06:55.482Z,19.50
2022-08-05T16:09:24.785Z,19.40
2022-08-05T16:11:55.023Z,19.50
2022-08-05T16:14:24.641Z,19.40
2022-08-05T16:16:54.879Z,19.40
2022-08-05T16:20:03.791Z,19.30
2022-08-05T16:22:11.202Z,19.40
2022-08-05T16:24:51.145Z,19.40
2022-08-05T16:27:47.228Z,19.40
2022-08-05T16:30:23.342Z,19.20
2022-08-05T16:32:55.265Z,19.10
2022-08-05T16:35:27.798Z,19.00
2022-08-05T16:38:15.709Z,18.80
2022-08-05T16:40:47.718Z,18.90
2022-08-05T16:43:23.496Z,18.80
2022-08-05T16:46:04.729Z,18.80
2022-08-05T16:48:41.233Z,18.80
2022-08-05T16:51:10.984Z,18.70
2022-08-05T16:54:03.853Z,18.70
2022-08-05T16:56:30.214Z,18.60
2022-08-05T16:59:00.876Z,18.60
2022-08-05T17:01:53.614Z,18.50
2022-08-05T17:04:20.315Z,18.60
2022-08-05T17:06:53.236Z,18.60
2022-08-05T17:09:23.120Z,18.50
2022-08-05T17:11:55.995Z,18.50
2022-08-05T17:14:34.217Z,18.40
2022-08-05T17:17:05.779Z,18.20
2022-08-05T17:19:34.058Z,18.10
2022-08-05T17:22:02.228Z,18.10
2022-08-05T17:24:38.795Z,18.10
2022-08-05T17:27:13.433Z,18.00
2022-08-05T17:29:47.182Z,18.00
2022-08-05T17:32:19.825Z,17.90
2022-08-05T17:34:49.335Z,17.90
2022-08-05T17:37:40.521Z,17.90
2022-08-05T17:40:10.220Z,17.90
2022-08-05T17:42:43.039Z,17.80
2022-08-05T17:45:23.051Z,17.80
2022-08-05T17:47:55.352Z,17.80
2022-08-05T17:50:28.435Z,17.80
2022-08-05T17:53:00.096Z,17.80
2022-08-05T17:55:37.376Z,17.80
2022-08-05T17:58:07.231Z,17.80
2022-08-05T18:00:44.307Z,17.80
2022-08-05T18:03:28.160Z,17.80
2022-08-05T18:06:04.651Z,17.80
2022-08-05T18:08:34.021Z,17.80
2022-08-05T18:11:03.182Z,17.70
2022-08-05T18:13:36.897Z,17.70
2022-08-05T18:16:14.331Z,17.70
2022-08-05T18:18:48.062Z,17.70
2022-08-05T18:21:21.246Z,17.60
2022-08-05T18:23:54.647Z,17.60
2022-08-05T18:26:27.482Z,17.50
2022-08-05T18:28:56.592Z,17.40
2022-08-05T18:31:33.044Z,17.40
2022-08-05T18:34:02.221Z,17.40
2022-08-05T18:36:30.304Z,17.40
2022-08-05T18:38:58.503Z,17.40
2022-08-05T18:41:56.736Z,17.40
2022-08-05T18:44:32.953Z,17.40
2022-08-05T18:47:04.580Z,17.40
2022-08-05T18:49:58.301Z,17.40
2022-08-05T18:52:35.892Z,17.40
2022-08-05T18:55:10.619Z,17.40
2022-08-05T18:57:43.618Z,17.30
2022-08-05T19:00:28.714Z,17.30
2022-08-05T19:03:03.906Z,17.30
2022-08-05T19:06:12.346Z,17.20
2022-08-05T19:08:30.431Z,17.20
2022-08-05T19:11:04.461Z,17.20
2022-08-05T19:13:35.862Z,17.10
2022-08-05T19:16:25.494Z,17.10
2022-08-05T19:18:57.197Z,17.10
2022-08-05T19:21:29.478Z,17.10
2022-08-05T19:24:07.341Z,17.10
2022-08-05T19:26:54.275Z,17.10
2022-08-05T19:29:24.319Z,17.10
2022-08-05T19:32:04.454Z,17.00
2022-08-05T19:34:34.309Z,17.00
2022-08-05T19:37:02.826Z,17.00
2022-08-05T19:39:31.926Z,16.90
2022-08-05T19:42:15.258Z,16.90
2022-08-05T19:44:44.926Z,16.90
2022-08-05T19:47:16.336Z,16.90
2022-08-05T19:49:48.023Z,16.90
2022-08-05T19:52:40.554Z,16.80
2022-08-05T19:55:07.254Z,16.80
2022-08-05T19:58:07.091Z,16.80
2022-08-05T20:00:41.739Z,16.70
2022-08-05T20:03:10.980Z,16.70
2022-08-05T20:05:43.370Z,16.70
2022-08-05T20:08:18.845Z,16.70
2022-08-05T20:10:49.806Z,16.60
2022-08-05T20:13:29.813Z,16.60
2022-08-05T20:15:59.742Z,16.60
2022-08-05T20:18:33.978Z,16.50
2022-08-05T20:21:07.137Z,16.50
2022-08-05T20:23:39.357Z,16.50
2022-08-05T20:26:18.489Z,16.50
2022-08-05T20:28:48.553Z,16.40
2022-08-05T20:31:17.148Z,16.40
2022-08-05T20:33:45.866Z,16.40
2022-08-05T20:36:17.876Z,16.40
2022-08-05T20:38:54.098Z,16.30
2022-08-05T20:41:43.847Z,16.40
2022-08-05T20:44:18.413Z,16.30
2022-08-05T20:46:48.209Z,16.30
2022-08-05T20:49:24.111Z,16.30
2022-08-05T20:51:54.554Z,16.20
2022-08-05T20:54:22.825Z,16.20
2022-08-05T20:56:52.986Z,16.20
2022-08-05T20:59:26.645Z,16.20
2022-08-05T21:01:57.939Z,16.20
2022-08-05T21:04:27.096Z,16.10
2022-08-05T21:06:56.988Z,16.10
2022-08-05T21:09:26.397Z,16.10
2022-08-05T21:12:08.226Z,16.10
2022-08-05T21:14:39.959Z,16.10
2022-08-05T21:17:08.290Z,16.10
2022-08-05T21:19:46.481Z,16.10
2022-08-05T21:22:18.578Z,16.00
2022-08-05T21:24:52.402Z,16.00
2022-08-05T21:27:24.659Z,16.00
2022-08-05T21:29:55.315Z,16.00
2022-08-05T21:32:24.431Z,16.00
2022-08-05T21:34:56.013Z,16.00
2022-08-05T21:37:41.351Z,16.00
2022-08-05T21:40:13.965Z,15.90
2022-08-05T21:42:44.901Z,15.90
2022-08-05T21:45:17.625Z,15.90
2022-08-05T21:48:06.484Z,15.90
2022-08-05T21:50:37.335Z,15.80
2022-08-05T21:53:08.465Z,15.80
2022-08-05T21:56:05.753Z,15.80
2022-08-05T21:58:33.623Z,15.80
2022-08-05T22:01:02.284Z,15.80
2022-08-05T22:03:51.773Z,15.70
2022-08-05T22:06:22.606Z,15.70
2022-08-05T22:08:54.054Z,15.70
2022-08-05T22:11:34.682Z,15.60
2022-08-05T22:14:31.452Z,15.70
2022-08-05T22:16:56.987Z,15.60
2022-08-05T22:20:02.180Z,15.70
2022-08-05T22:22:16.565Z,15.60
2022-08-05T22:25:21.357Z,15.60
2022-08-05T22:28:10.422Z,15.60
2022-08-05T22:30:55.380Z,15.50
2022-08-05T22:33:58.571Z,15.50
2022-08-05T22:36:15.225Z,15.50
2022-08-05T22:38:48.489Z,15.50
2022-08-05T22:42:05.481Z,15.40
2022-08-05T22:44:08.575Z,15.40
2022-08-05T22:46:39.827Z,15.40
2022-08-05T22:49:12.494Z,15.40
2022-08-05T22:52:04.479Z,15.40
2022-08-05T22:54:36.386Z,15.40
2022-08-05T22:57:06.341Z,15.40
2022-08-05T22:59:46.330Z,15.30
2022-08-05T23:02:18.378Z,15.30
2022-08-05T23:04:56.867Z,15.30
2022-08-05T23:07:25.049Z,15.30
2022-08-05T23:10:01.143Z,15.30
2022-08-05T23:12:33.291Z,15.20
2022-08-05T23:15:03.084Z,15.20
2022-08-05T23:17:34.514Z,15.20
2022-08-05T23:20:10.112Z,15.20
2022-08-05T23:22:47.146Z,15.20
2022-08-05T23:25:17.023Z,15.20
2022-08-05T23:28:07.743Z,15.20
2022-08-05T23:30:40.404Z,15.20
2022-08-05T23:33:16.079Z,15.20
2022-08-05T23:35:50.662Z,15.10
2022-08-05T23:38:18.969Z,15.10
2022-08-05T23:40:49.932Z,15.10
2022-08-05T23:43:25.350Z,15.10
2022-08-05T23:46:20.786Z,15.00
2022-08-05T23:49:00.235Z,15.00
2022-08-05T23:51:54.013Z,15.00
2022-08-05T23:54:25.848Z,15.00
2022-08-05T23:56:56.007Z,14.90
